sensor_id;sensor_type;location;lat;lon;timestamp;P1;durP1;ratioP1;P2;durP2;ratioP2
7231;SDS011;3657;49.630;11.018;2023-02-13T00:00:49;19.97;;;18.13;;
7231;SDS011;3657;49.630;11.018;2023-02-13T00:03:16;18.93;;;17.47;;
7231;SDS011;3657;49.630;11.018;2023-02-13T00:05:44;18.63;;;17.23;;
7231;SDS011;3657;49.630;11.018;2023-02-13T00:08:11;16.80;;;15.40;;
7231;SDS011;3657;49.630;11.018;2023-02-13T00:10:38;16.17;;;15.03;;
7231;SDS011;3657;49.630;11.018;2023-02-13T00:13:04;16.73;;;15.63;;
7231;SDS011;3657;49.630;11.018;2023-02-13T00:15:31;15.93;;;14.87;;
7231;SDS011;3657;49.630;11.018;2023-02-13T00:17:58;16.13;;;14.83;;
7231;SDS011;3657;49.630;11.018;2023-02-13T00:20:25;17.50;;;16.37;;
7231;SDS011;3657;49.630;11.018;2023-02-13T00:22:53;17.40;;;16.10;;
7231;SDS011;3657;49.630;11.018;2023-02-13T00:25:19;17.53;;;16.20;;
7231;SDS011;3657;49.630;11.018;2023-02-13T00:27:46;16.20;;;14.83;;
7231;SDS011;3657;49.630;11.018;2023-02-13T00:30:13;16.17;;;15.07;;
7231;SDS011;3657;49.630;11.018;2023-02-13T00:32:40;17.40;;;15.83;;
7231;SDS011;3657;49.630;11.018;2023-02-13T00:35:07;15.43;;;14.10;;
7231;SDS011;3657;49.630;11.018;2023-02-13T00:37:34;16.30;;;15.20;;
7231;SDS011;3657;49.630;11.018;2023-02-13T00:40:02;16.33;;;15.03;;
7231;SDS011;3657;49.630;11.018;2023-02-13T00:42:29;15.40;;;14.33;;
7231;SDS011;3657;49.630;11.018;2023-02-13T00:44:56;16.37;;;15.07;;
7231;SDS011;3657;49.630;11.018;2023-02-13T00:47:22;16.00;;;14.90;;
7231;SDS011;3657;49.630;11.018;2023-02-13T00:49:49;16.60;;;15.30;;
7231;SDS011;3657;49.630;11.018;2023-02-13T00:52:16;17.83;;;16.53;;
7231;SDS011;3657;49.630;11.018;2023-02-13T00:54:42;17.67;;;16.33;;
7231;SDS011;3657;49.630;11.018;2023-02-13T00:57:12;16.87;;;15.47;;
7231;SDS011;3657;49.630;11.018;2023-02-13T00:59:38;18.57;;;16.80;;
7231;SDS011;3657;49.630;11.018;2023-02-13T01:02:05;17.37;;;16.00;;
7231;SDS011;3657;49.630;11.018;2023-02-13T01:04:32;19.70;;;17.97;;
7231;SDS011;3657;49.630;11.018;2023-02-13T01:06:58;20.47;;;18.57;;
7231;SDS011;3657;49.630;11.018;2023-02-13T01:09:25;20.53;;;18.83;;
7231;SDS011;3657;49.630;11.018;2023-02-13T01:11:51;20.63;;;18.93;;
7231;SDS011;3657;49.630;11.018;2023-02-13T01:14:19;20.83;;;18.93;;
7231;SDS011;3657;49.630;11.018;2023-02-13T01:16:46;22.50;;;20.40;;
7231;SDS011;3657;49.630;11.018;2023-02-13T01:19:13;22.43;;;20.30;;
7231;SDS011;3657;49.630;11.018;2023-02-13T01:21:39;24.63;;;22.30;;
7231;SDS011;3657;49.630;11.018;2023-02-13T01:24:08;22.67;;;20.67;;
7231;SDS011;3657;49.630;11.018;2023-02-13T01:26:35;24.17;;;21.90;;
7231;SDS011;3657;49.630;11.018;2023-02-13T01:29:01;25.07;;;22.80;;
7231;SDS011;3657;49.630;11.018;2023-02-13T01:31:29;24.17;;;21.80;;
7231;SDS011;3657;49.630;11.018;2023-02-13T01:33:56;25.33;;;23.00;;
7231;SDS011;3657;49.630;11.018;2023-02-13T01:36:24;24.80;;;22.57;;
7231;SDS011;3657;49.630;11.018;2023-02-13T01:38:52;27.33;;;24.93;;
7231;SDS011;3657;49.630;11.018;2023-02-13T01:41:19;25.70;;;23.50;;
7231;SDS011;3657;49.630;11.018;2023-02-13T01:43:47;25.07;;;22.93;;
7231;SDS011;3657;49.630;11.018;2023-02-13T01:46:16;25.57;;;23.30;;
7231;SDS011;3657;49.630;11.018;2023-02-13T01:48:48;24.53;;;22.47;;
7231;SDS011;3657;49.630;11.018;2023-02-13T01:51:18;25.83;;;23.73;;
7231;SDS011;3657;49.630;11.018;2023-02-13T01:53:47;25.63;;;23.40;;
7231;SDS011;3657;49.630;11.018;2023-02-13T01:56:19;24.50;;;22.43;;
7231;SDS011;3657;49.630;11.018;2023-02-13T01:58:49;24.40;;;22.47;;
7231;SDS011;3657;49.630;11.018;2023-02-13T02:01:19;24.07;;;22.13;;
7231;SDS011;3657;49.630;11.018;2023-02-13T02:03:50;24.63;;;22.73;;
7231;SDS011;3657;49.630;11.018;2023-02-13T02:06:22;23.87;;;21.97;;
7231;SDS011;3657;49.630;11.018;2023-02-13T02:08:52;25.83;;;23.73;;
7231;SDS011;3657;49.630;11.018;2023-02-13T02:11:24;24.83;;;22.73;;
7231;SDS011;3657;49.630;11.018;2023-02-13T02:13:55;24.83;;;22.67;;
7231;SDS011;3657;49.630;11.018;2023-02-13T02:16:23;24.07;;;22.17;;
7231;SDS011;3657;49.630;11.018;2023-02-13T02:18:52;22.50;;;20.70;;
7231;SDS011;3657;49.630;11.018;2023-02-13T02:21:35;22.23;;;20.53;;
7231;SDS011;3657;49.630;11.018;2023-02-13T02:24:26;22.23;;;20.43;;
7231;SDS011;3657;49.630;11.018;2023-02-13T02:27:25;21.67;;;19.87;;
7231;SDS011;3657;49.630;11.018;2023-02-13T02:30:25;21.37;;;19.80;;
7231;SDS011;3657;49.630;11.018;2023-02-13T02:33:18;19.07;;;17.77;;
7231;SDS011;3657;49.630;11.018;2023-02-13T02:35:57;19.57;;;18.17;;
7231;SDS011;3657;49.630;11.018;2023-02-13T02:38:46;19.10;;;17.67;;
7231;SDS011;3657;49.630;11.018;2023-02-13T02:41:23;19.97;;;18.37;;
7231;SDS011;3657;49.630;11.018;2023-02-13T02:44:08;19.27;;;17.90;;
7231;SDS011;3657;49.630;11.018;2023-02-13T02:46:49;18.80;;;17.50;;
7231;SDS011;3657;49.630;11.018;2023-02-13T02:49:50;17.80;;;16.60;;
7231;SDS011;3657;49.630;11.018;2023-02-13T02:52:33;18.03;;;16.83;;
7231;SDS011;3657;49.630;11.018;2023-02-13T02:55:09;18.07;;;16.77;;
7231;SDS011;3657;49.630;11.018;2023-02-13T02:57:44;19.10;;;17.53;;
7231;SDS011;3657;49.630;11.018;2023-02-13T03:00:31;18.13;;;16.87;;
7231;SDS011;3657;49.630;11.018;2023-02-13T03:03:21;17.93;;;16.33;;
7231;SDS011;3657;49.630;11.018;2023-02-13T03:06:11;17.63;;;16.43;;
7231;SDS011;3657;49.630;11.018;2023-02-13T03:08:41;16.43;;;15.23;;
7231;SDS011;3657;49.630;11.018;2023-02-13T03:11:28;16.60;;;15.30;;
7231;SDS011;3657;49.630;11.018;2023-02-13T03:14:13;15.70;;;14.80;;
7231;SDS011;3657;49.630;11.018;2023-02-13T03:16:45;15.50;;;14.50;;
7231;SDS011;3657;49.630;11.018;2023-02-13T03:19:40;15.47;;;14.23;;
7231;SDS011;3657;49.630;11.018;2023-02-13T03:22:36;13.73;;;13.03;;
7231;SDS011;3657;49.630;11.018;2023-02-13T03:25:11;13.80;;;12.80;;
7231;SDS011;3657;49.630;11.018;2023-02-13T03:27:55;21.87;;;13.17;;
7231;SDS011;3657;49.630;11.018;2023-02-13T03:30:46;13.80;;;13.03;;
7231;SDS011;3657;49.630;11.018;2023-02-13T03:33:26;36.57;;;15.60;;
7231;SDS011;3657;49.630;11.018;2023-02-13T03:36:06;12.43;;;11.77;;
7231;SDS011;3657;49.630;11.018;2023-02-13T03:39:02;12.57;;;11.97;;
7231;SDS011;3657;49.630;11.018;2023-02-13T03:41:35;12.67;;;11.80;;
7231;SDS011;3657;49.630;11.018;2023-02-13T03:44:07;12.20;;;11.67;;
7231;SDS011;3657;49.630;11.018;2023-02-13T03:46:37;12.10;;;11.50;;
7231;SDS011;3657;49.630;11.018;2023-02-13T03:49:06;12.80;;;12.17;;
7231;SDS011;3657;49.630;11.018;2023-02-13T03:51:57;12.03;;;11.43;;
7231;SDS011;3657;49.630;11.018;2023-02-13T03:54:31;11.13;;;10.63;;
7231;SDS011;3657;49.630;11.018;2023-02-13T03:57:19;11.77;;;11.20;;
7231;SDS011;3657;49.630;11.018;2023-02-13T04:00:07;11.23;;;10.83;;
7231;SDS011;3657;49.630;11.018;2023-02-13T04:02:38;12.17;;;11.50;;
7231;SDS011;3657;49.630;11.018;2023-02-13T04:05:08;9.27;;;8.67;;
7231;SDS011;3657;49.630;11.018;2023-02-13T04:07:40;11.33;;;10.73;;
7231;SDS011;3657;49.630;11.018;2023-02-13T04:10:09;11.10;;;10.60;;
7231;SDS011;3657;49.630;11.018;2023-02-13T04:12:40;11.37;;;10.87;;
7231;SDS011;3657;49.630;11.018;2023-02-13T04:15:13;11.47;;;10.97;;
7231;SDS011;3657;49.630;11.018;2023-02-13T04:17:42;11.50;;;10.70;;
7231;SDS011;3657;49.630;11.018;2023-02-13T04:20:13;11.47;;;10.90;;
7231;SDS011;3657;49.630;11.018;2023-02-13T04:22:43;10.57;;;10.07;;
7231;SDS011;3657;49.630;11.018;2023-02-13T04:25:12;11.40;;;10.80;;
7231;SDS011;3657;49.630;11.018;2023-02-13T04:27:40;10.37;;;9.97;;
7231;SDS011;3657;49.630;11.018;2023-02-13T04:30:07;9.70;;;9.30;;
7231;SDS011;3657;49.630;11.018;2023-02-13T04:32:35;10.67;;;10.27;;
7231;SDS011;3657;49.630;11.018;2023-02-13T04:35:01;9.90;;;9.50;;
7231;SDS011;3657;49.630;11.018;2023-02-13T04:37:28;10.13;;;9.73;;
7231;SDS011;3657;49.630;11.018;2023-02-13T04:39:55;9.83;;;9.43;;
7231;SDS011;3657;49.630;11.018;2023-02-13T04:42:23;10.30;;;9.70;;
7231;SDS011;3657;49.630;11.018;2023-02-13T04:44:50;9.03;;;8.63;;
7231;SDS011;3657;49.630;11.018;2023-02-13T04:47:16;9.37;;;8.97;;
7231;SDS011;3657;49.630;11.018;2023-02-13T04:49:43;24.10;;;11.00;;
7231;SDS011;3657;49.630;11.018;2023-02-13T04:52:09;8.73;;;8.43;;
7231;SDS011;3657;49.630;11.018;2023-02-13T04:54:36;24.17;;;10.43;;
7231;SDS011;3657;49.630;11.018;2023-02-13T04:57:03;8.93;;;8.53;;
7231;SDS011;3657;49.630;11.018;2023-02-13T04:59:31;9.37;;;8.97;;
7231;SDS011;3657;49.630;11.018;2023-02-13T05:01:57;8.50;;;8.20;;
7231;SDS011;3657;49.630;11.018;2023-02-13T05:04:24;8.00;;;7.70;;
7231;SDS011;3657;49.630;11.018;2023-02-13T05:06:51;7.53;;;7.23;;
7231;SDS011;3657;49.630;11.018;2023-02-13T05:09:17;7.13;;;6.83;;
7231;SDS011;3657;49.630;11.018;2023-02-13T05:11:44;7.93;;;7.63;;
7231;SDS011;3657;49.630;11.018;2023-02-13T05:14:11;8.13;;;7.83;;
7231;SDS011;3657;49.630;11.018;2023-02-13T05:16:39;8.67;;;8.37;;
7231;SDS011;3657;49.630;11.018;2023-02-13T05:19:05;8.17;;;7.87;;
7231;SDS011;3657;49.630;11.018;2023-02-13T05:21:32;7.77;;;7.47;;
7231;SDS011;3657;49.630;11.018;2023-02-13T05:24:16;7.57;;;7.27;;
7231;SDS011;3657;49.630;11.018;2023-02-13T05:26:43;7.90;;;7.60;;
7231;SDS011;3657;49.630;11.018;2023-02-13T05:29:09;7.77;;;7.47;;
7231;SDS011;3657;49.630;11.018;2023-02-13T05:31:48;8.60;;;8.23;;
7231;SDS011;3657;49.630;11.018;2023-02-13T05:34:16;8.50;;;8.10;;
7231;SDS011;3657;49.630;11.018;2023-02-13T05:36:43;7.87;;;7.57;;
7231;SDS011;3657;49.630;11.018;2023-02-13T05:39:09;8.63;;;8.33;;
7231;SDS011;3657;49.630;11.018;2023-02-13T05:41:36;8.50;;;8.20;;
7231;SDS011;3657;49.630;11.018;2023-02-13T05:44:02;8.90;;;8.60;;
7231;SDS011;3657;49.630;11.018;2023-02-13T05:46:30;8.13;;;7.83;;
7231;SDS011;3657;49.630;11.018;2023-02-13T05:48:58;8.00;;;7.70;;
7231;SDS011;3657;49.630;11.018;2023-02-13T05:51:24;10.17;;;9.57;;
7231;SDS011;3657;49.630;11.018;2023-02-13T05:53:51;9.13;;;8.73;;
7231;SDS011;3657;49.630;11.018;2023-02-13T05:56:18;10.80;;;10.20;;
7231;SDS011;3657;49.630;11.018;2023-02-13T05:58:44;11.87;;;11.03;;
7231;SDS011;3657;49.630;11.018;2023-02-13T06:01:11;12.33;;;11.53;;
7231;SDS011;3657;49.630;11.018;2023-02-13T06:03:38;12.53;;;11.73;;
7231;SDS011;3657;49.630;11.018;2023-02-13T06:06:06;11.27;;;10.67;;
7231;SDS011;3657;49.630;11.018;2023-02-13T06:08:33;11.83;;;11.13;;
7231;SDS011;3657;49.630;11.018;2023-02-13T06:11:00;11.07;;;10.40;;
7231;SDS011;3657;49.630;11.018;2023-02-13T06:13:26;11.37;;;10.87;;
7231;SDS011;3657;49.630;11.018;2023-02-13T06:15:53;10.73;;;10.17;;
7231;SDS011;3657;49.630;11.018;2023-02-13T06:18:19;9.57;;;9.10;;
7231;SDS011;3657;49.630;11.018;2023-02-13T06:20:46;9.37;;;8.93;;
7231;SDS011;3657;49.630;11.018;2023-02-13T06:23:14;9.80;;;9.30;;
7231;SDS011;3657;49.630;11.018;2023-02-13T06:25:41;9.23;;;8.83;;
7231;SDS011;3657;49.630;11.018;2023-02-13T06:28:08;9.43;;;8.97;;
7231;SDS011;3657;49.630;11.018;2023-02-13T06:30:34;9.53;;;9.03;;
7231;SDS011;3657;49.630;11.018;2023-02-13T06:33:01;9.83;;;9.33;;
7231;SDS011;3657;49.630;11.018;2023-02-13T06:35:28;8.70;;;8.30;;
7231;SDS011;3657;49.630;11.018;2023-02-13T06:37:54;8.47;;;8.13;;
7231;SDS011;3657;49.630;11.018;2023-02-13T06:40:22;9.63;;;9.13;;
7231;SDS011;3657;49.630;11.018;2023-02-13T06:42:49;10.93;;;10.43;;
7231;SDS011;3657;49.630;11.018;2023-02-13T06:45:16;9.77;;;9.37;;
7231;SDS011;3657;49.630;11.018;2023-02-13T06:47:43;9.67;;;9.17;;
7231;SDS011;3657;49.630;11.018;2023-02-13T06:50:11;12.13;;;11.43;;
7231;SDS011;3657;49.630;11.018;2023-02-13T06:52:38;10.47;;;9.97;;
7231;SDS011;3657;49.630;11.018;2023-02-13T06:55:10;9.80;;;9.30;;
7231;SDS011;3657;49.630;11.018;2023-02-13T06:57:38;10.40;;;10.00;;
7231;SDS011;3657;49.630;11.018;2023-02-13T07:00:05;10.60;;;10.10;;
7231;SDS011;3657;49.630;11.018;2023-02-13T07:02:32;10.57;;;9.97;;
7231;SDS011;3657;49.630;11.018;2023-02-13T07:04:59;9.57;;;9.20;;
7231;SDS011;3657;49.630;11.018;2023-02-13T07:07:31;10.23;;;9.73;;
7231;SDS011;3657;49.630;11.018;2023-02-13T07:09:58;10.40;;;9.90;;
7231;SDS011;3657;49.630;11.018;2023-02-13T07:12:25;9.90;;;9.50;;
7231;SDS011;3657;49.630;11.018;2023-02-13T07:14:53;10.70;;;10.10;;
7231;SDS011;3657;49.630;11.018;2023-02-13T07:17:19;10.87;;;10.37;;
7231;SDS011;3657;49.630;11.018;2023-02-13T07:19:46;10.00;;;9.60;;
7231;SDS011;3657;49.630;11.018;2023-02-13T07:22:13;10.20;;;9.80;;
7231;SDS011;3657;49.630;11.018;2023-02-13T07:24:39;10.97;;;10.37;;
7231;SDS011;3657;49.630;11.018;2023-02-13T07:27:06;9.87;;;9.33;;
7231;SDS011;3657;49.630;11.018;2023-02-13T07:29:32;16.83;;;10.80;;
7231;SDS011;3657;49.630;11.018;2023-02-13T07:32:00;25.43;;;11.67;;
7231;SDS011;3657;49.630;11.018;2023-02-13T07:34:27;24.07;;;11.90;;
7231;SDS011;3657;49.630;11.018;2023-02-13T07:36:54;10.03;;;9.63;;
7231;SDS011;3657;49.630;11.018;2023-02-13T07:39:20;9.47;;;8.87;;
7231;SDS011;3657;49.630;11.018;2023-02-13T07:41:47;9.37;;;8.97;;
7231;SDS011;3657;49.630;11.018;2023-02-13T07:44:14;12.63;;;11.23;;
7231;SDS011;3657;49.630;11.018;2023-02-13T07:46:40;11.80;;;10.80;;
7231;SDS011;3657;49.630;11.018;2023-02-13T07:49:08;8.77;;;8.47;;
7231;SDS011;3657;49.630;11.018;2023-02-13T07:51:35;11.00;;;10.40;;
7231;SDS011;3657;49.630;11.018;2023-02-13T07:54:02;10.23;;;9.47;;
7231;SDS011;3657;49.630;11.018;2023-02-13T07:56:28;8.87;;;8.57;;
7231;SDS011;3657;49.630;11.018;2023-02-13T07:58:55;8.57;;;8.17;;
7231;SDS011;3657;49.630;11.018;2023-02-13T08:01:22;9.30;;;8.90;;
7231;SDS011;3657;49.630;11.018;2023-02-13T08:03:49;8.40;;;8.10;;
7231;SDS011;3657;49.630;11.018;2023-02-13T08:06:18;8.50;;;8.17;;
7231;SDS011;3657;49.630;11.018;2023-02-13T08:08:45;9.07;;;8.57;;
7231;SDS011;3657;49.630;11.018;2023-02-13T08:11:18;8.30;;;8.00;;
7231;SDS011;3657;49.630;11.018;2023-02-13T08:14:06;7.83;;;7.53;;
7231;SDS011;3657;49.630;11.018;2023-02-13T08:16:33;9.27;;;8.97;;
7231;SDS011;3657;49.630;11.018;2023-02-13T08:19:00;8.80;;;8.40;;
7231;SDS011;3657;49.630;11.018;2023-02-13T08:21:28;9.30;;;8.80;;
7231;SDS011;3657;49.630;11.018;2023-02-13T08:23:56;8.60;;;8.20;;
7231;SDS011;3657;49.630;11.018;2023-02-13T08:26:22;15.43;;;9.70;;
7231;SDS011;3657;49.630;11.018;2023-02-13T08:28:49;9.57;;;9.17;;
7231;SDS011;3657;49.630;11.018;2023-02-13T08:31:16;8.37;;;7.97;;
7231;SDS011;3657;49.630;11.018;2023-02-13T08:33:42;8.83;;;8.40;;
7231;SDS011;3657;49.630;11.018;2023-02-13T08:36:09;9.20;;;8.90;;
7231;SDS011;3657;49.630;11.018;2023-02-13T08:38:37;8.23;;;7.93;;
7231;SDS011;3657;49.630;11.018;2023-02-13T08:41:04;9.67;;;9.27;;
7231;SDS011;3657;49.630;11.018;2023-02-13T08:43:30;8.83;;;8.53;;
7231;SDS011;3657;49.630;11.018;2023-02-13T08:45:57;8.77;;;8.27;;
7231;SDS011;3657;49.630;11.018;2023-02-13T08:48:24;8.47;;;8.17;;
7231;SDS011;3657;49.630;11.018;2023-02-13T08:50:51;7.97;;;7.67;;
7231;SDS011;3657;49.630;11.018;2023-02-13T08:53:18;8.93;;;8.63;;
7231;SDS011;3657;49.630;11.018;2023-02-13T08:55:51;9.60;;;9.10;;
7231;SDS011;3657;49.630;11.018;2023-02-13T08:58:18;9.07;;;8.67;;
7231;SDS011;3657;49.630;11.018;2023-02-13T09:00:45;9.20;;;8.80;;
7231;SDS011;3657;49.630;11.018;2023-02-13T09:03:11;9.17;;;8.87;;
7231;SDS011;3657;49.630;11.018;2023-02-13T09:05:38;9.40;;;9.00;;
7231;SDS011;3657;49.630;11.018;2023-02-13T09:08:05;8.47;;;8.17;;
7231;SDS011;3657;49.630;11.018;2023-02-13T09:10:32;9.53;;;9.07;;
7231;SDS011;3657;49.630;11.018;2023-02-13T09:13:01;9.03;;;8.63;;
7231;SDS011;3657;49.630;11.018;2023-02-13T09:15:28;10.83;;;10.33;;
7231;SDS011;3657;49.630;11.018;2023-02-13T09:17:55;9.47;;;9.03;;
7231;SDS011;3657;49.630;11.018;2023-02-13T09:20:22;9.47;;;8.97;;
7231;SDS011;3657;49.630;11.018;2023-02-13T09:22:49;9.23;;;8.80;;
7231;SDS011;3657;49.630;11.018;2023-02-13T09:25:16;10.13;;;9.73;;
7231;SDS011;3657;49.630;11.018;2023-02-13T09:27:44;10.67;;;10.17;;
7231;SDS011;3657;49.630;11.018;2023-02-13T09:30:12;11.53;;;10.93;;
7231;SDS011;3657;49.630;11.018;2023-02-13T09:32:47;11.23;;;10.73;;
7231;SDS011;3657;49.630;11.018;2023-02-13T09:35:14;11.13;;;10.63;;
7231;SDS011;3657;49.630;11.018;2023-02-13T09:37:41;11.07;;;10.47;;
7231;SDS011;3657;49.630;11.018;2023-02-13T09:40:12;12.37;;;11.67;;
7231;SDS011;3657;49.630;11.018;2023-02-13T09:42:43;11.87;;;11.20;;
7231;SDS011;3657;49.630;11.018;2023-02-13T09:45:12;12.37;;;11.67;;
7231;SDS011;3657;49.630;11.018;2023-02-13T09:47:41;11.80;;;11.20;;
7231;SDS011;3657;49.630;11.018;2023-02-13T09:50:10;12.13;;;11.43;;
7231;SDS011;3657;49.630;11.018;2023-02-13T09:52:39;13.43;;;12.53;;
7231;SDS011;3657;49.630;11.018;2023-02-13T09:55:13;12.27;;;11.57;;
7231;SDS011;3657;49.630;11.018;2023-02-13T09:57:42;13.10;;;12.33;;
7231;SDS011;3657;49.630;11.018;2023-02-13T10:00:14;11.57;;;11.07;;
7231;SDS011;3657;49.630;11.018;2023-02-13T10:02:48;13.03;;;12.33;;
7231;SDS011;3657;49.630;11.018;2023-02-13T10:05:41;13.43;;;12.63;;
7231;SDS011;3657;49.630;11.018;2023-02-13T10:08:18;13.00;;;12.30;;
7231;SDS011;3657;49.630;11.018;2023-02-13T10:11:01;14.60;;;13.70;;
7231;SDS011;3657;49.630;11.018;2023-02-13T10:13:44;12.90;;;12.20;;
7231;SDS011;3657;49.630;11.018;2023-02-13T10:16:18;13.50;;;12.60;;
7231;SDS011;3657;49.630;11.018;2023-02-13T10:18:48;13.33;;;12.63;;
7231;SDS011;3657;49.630;11.018;2023-02-13T10:21:18;13.30;;;12.60;;
7231;SDS011;3657;49.630;11.018;2023-02-13T10:23:50;14.60;;;13.77;;
7231;SDS011;3657;49.630;11.018;2023-02-13T10:26:21;14.10;;;13.30;;
7231;SDS011;3657;49.630;11.018;2023-02-13T10:29:07;21.83;;;19.00;;
7231;SDS011;3657;49.630;11.018;2023-02-13T10:32:00;13.53;;;12.80;;
7231;SDS011;3657;49.630;11.018;2023-02-13T10:34:30;14.00;;;13.20;;
7231;SDS011;3657;49.630;11.018;2023-02-13T10:37:02;21.07;;;18.90;;
7231;SDS011;3657;49.630;11.018;2023-02-13T10:39:33;16.33;;;15.33;;
7231;SDS011;3657;49.630;11.018;2023-02-13T10:42:01;16.10;;;15.10;;
7231;SDS011;3657;49.630;11.018;2023-02-13T10:44:41;18.27;;;16.90;;
7231;SDS011;3657;49.630;11.018;2023-02-13T10:47:21;16.20;;;15.13;;
7231;SDS011;3657;49.630;11.018;2023-02-13T10:50:03;17.40;;;16.10;;
7231;SDS011;3657;49.630;11.018;2023-02-13T10:52:40;19.30;;;17.80;;
7231;SDS011;3657;49.630;11.018;2023-02-13T10:55:21;16.50;;;15.40;;
7231;SDS011;3657;49.630;11.018;2023-02-13T10:58:11;16.17;;;15.17;;
7231;SDS011;3657;49.630;11.018;2023-02-13T11:00:44;16.60;;;15.40;;
7231;SDS011;3657;49.630;11.018;2023-02-13T11:03:16;16.63;;;15.53;;
7231;SDS011;3657;49.630;11.018;2023-02-13T11:05:46;16.67;;;15.33;;
7231;SDS011;3657;49.630;11.018;2023-02-13T11:08:15;16.00;;;14.93;;
7231;SDS011;3657;49.630;11.018;2023-02-13T11:10:45;16.73;;;15.63;;
7231;SDS011;3657;49.630;11.018;2023-02-13T11:13:16;15.43;;;14.47;;
7231;SDS011;3657;49.630;11.018;2023-02-13T11:15:55;16.30;;;15.20;;
7231;SDS011;3657;49.630;11.018;2023-02-13T11:18:28;16.63;;;15.43;;
7231;SDS011;3657;49.630;11.018;2023-02-13T11:20:58;17.53;;;16.27;;
7231;SDS011;3657;49.630;11.018;2023-02-13T11:23:35;18.37;;;16.90;;
7231;SDS011;3657;49.630;11.018;2023-02-13T11:26:05;17.70;;;16.50;;
7231;SDS011;3657;49.630;11.018;2023-02-13T11:28:35;16.13;;;15.07;;
7231;SDS011;3657;49.630;11.018;2023-02-13T11:31:10;21.70;;;19.87;;
7231;SDS011;3657;49.630;11.018;2023-02-13T11:33:40;18.13;;;16.87;;
7231;SDS011;3657;49.630;11.018;2023-02-13T11:36:08;16.73;;;15.53;;
7231;SDS011;3657;49.630;11.018;2023-02-13T11:38:38;17.40;;;16.20;;
7231;SDS011;3657;49.630;11.018;2023-02-13T11:41:06;18.10;;;16.90;;
7231;SDS011;3657;49.630;11.018;2023-02-13T11:43:36;18.17;;;16.77;;
7231;SDS011;3657;49.630;11.018;2023-02-13T11:46:11;17.93;;;16.57;;
7231;SDS011;3657;49.630;11.018;2023-02-13T11:48:44;15.90;;;14.90;;
7231;SDS011;3657;49.630;11.018;2023-02-13T11:51:39;16.37;;;15.17;;
7231;SDS011;3657;49.630;11.018;2023-02-13T11:54:20;18.73;;;17.23;;
7231;SDS011;3657;49.630;11.018;2023-02-13T11:56:51;18.23;;;16.87;;
7231;SDS011;3657;49.630;11.018;2023-02-13T11:59:21;18.07;;;16.83;;
7231;SDS011;3657;49.630;11.018;2023-02-13T12:01:57;22.30;;;20.30;;
7231;SDS011;3657;49.630;11.018;2023-02-13T12:04:29;18.67;;;17.27;;
7231;SDS011;3657;49.630;11.018;2023-02-13T12:06:57;18.30;;;17.00;;
7231;SDS011;3657;49.630;11.018;2023-02-13T12:09:26;19.00;;;17.60;;
7231;SDS011;3657;49.630;11.018;2023-02-13T12:11:55;17.80;;;16.50;;
7231;SDS011;3657;49.630;11.018;2023-02-13T12:14:24;19.73;;;18.33;;
7231;SDS011;3657;49.630;11.018;2023-02-13T12:16:56;20.13;;;18.63;;
7231;SDS011;3657;49.630;11.018;2023-02-13T12:19:27;20.67;;;19.07;;
7231;SDS011;3657;49.630;11.018;2023-02-13T12:22:02;19.63;;;18.13;;
7231;SDS011;3657;49.630;11.018;2023-02-13T12:24:50;18.23;;;16.93;;
7231;SDS011;3657;49.630;11.018;2023-02-13T12:27:32;18.23;;;16.93;;
7231;SDS011;3657;49.630;11.018;2023-02-13T12:30:16;20.40;;;18.83;;
7231;SDS011;3657;49.630;11.018;2023-02-13T12:33:03;17.73;;;16.53;;
7231;SDS011;3657;49.630;11.018;2023-02-13T12:35:43;19.77;;;18.23;;
7231;SDS011;3657;49.630;11.018;2023-02-13T12:38:21;20.07;;;18.47;;
7231;SDS011;3657;49.630;11.018;2023-02-13T12:41:04;18.00;;;16.80;;
7231;SDS011;3657;49.630;11.018;2023-02-13T12:43:54;18.80;;;17.47;;
7231;SDS011;3657;49.630;11.018;2023-02-13T12:46:33;21.10;;;19.60;;
7231;SDS011;3657;49.630;11.018;2023-02-13T12:49:07;18.47;;;17.30;;
7231;SDS011;3657;49.630;11.018;2023-02-13T12:51:52;17.97;;;16.77;;
7231;SDS011;3657;49.630;11.018;2023-02-13T12:54:32;18.70;;;17.40;;
7231;SDS011;3657;49.630;11.018;2023-02-13T12:57:12;17.33;;;16.23;;
7231;SDS011;3657;49.630;11.018;2023-02-13T13:03:02;18.90;;;17.57;;
7231;SDS011;3657;49.630;11.018;2023-02-13T13:05:48;20.67;;;19.07;;
7231;SDS011;3657;49.630;11.018;2023-02-13T13:08:30;18.83;;;17.53;;
7231;SDS011;3657;49.630;11.018;2023-02-13T13:11:12;19.73;;;18.40;;
7231;SDS011;3657;49.630;11.018;2023-02-13T13:13:52;20.13;;;18.43;;
7231;SDS011;3657;49.630;11.018;2023-02-13T13:16:28;20.77;;;18.97;;
7231;SDS011;3657;49.630;11.018;2023-02-13T13:19:04;17.70;;;16.53;;
7231;SDS011;3657;49.630;11.018;2023-02-13T13:21:40;18.43;;;17.13;;
7231;SDS011;3657;49.630;11.018;2023-02-13T13:24:17;19.83;;;18.47;;
7231;SDS011;3657;49.630;11.018;2023-02-13T13:26:55;20.07;;;18.27;;
7231;SDS011;3657;49.630;11.018;2023-02-13T13:29:25;19.03;;;17.73;;
7231;SDS011;3657;49.630;11.018;2023-02-13T13:31:59;19.67;;;18.27;;
7231;SDS011;3657;49.630;11.018;2023-02-13T13:34:30;19.00;;;17.70;;
7231;SDS011;3657;49.630;11.018;2023-02-13T13:36:59;17.73;;;16.53;;
7231;SDS011;3657;49.630;11.018;2023-02-13T13:39:35;18.30;;;17.13;;
7231;SDS011;3657;49.630;11.018;2023-02-13T13:42:10;17.37;;;15.97;;
7231;SDS011;3657;49.630;11.018;2023-02-13T13:44:50;18.53;;;17.23;;
7231;SDS011;3657;49.630;11.018;2023-02-13T13:47:30;21.33;;;19.70;;
7231;SDS011;3657;49.630;11.018;2023-02-13T13:50:11;18.17;;;16.90;;
7231;SDS011;3657;49.630;11.018;2023-02-13T13:55:58;19.43;;;18.13;;
7231;SDS011;3657;49.630;11.018;2023-02-13T13:58:32;19.97;;;18.43;;
7231;SDS011;3657;49.630;11.018;2023-02-13T14:01:23;18.83;;;17.53;;
7231;SDS011;3657;49.630;11.018;2023-02-13T14:03:51;17.57;;;16.47;;
7231;SDS011;3657;49.630;11.018;2023-02-13T14:06:20;17.47;;;16.37;;
7231;SDS011;3657;49.630;11.018;2023-02-13T14:11:56;17.87;;;16.53;;
7231;SDS011;3657;49.630;11.018;2023-02-13T14:20:18;17.87;;;16.57;;
7231;SDS011;3657;49.630;11.018;2023-02-13T14:22:47;16.53;;;15.27;;
7231;SDS011;3657;49.630;11.018;2023-02-13T14:25:20;16.33;;;15.33;;
7231;SDS011;3657;49.630;11.018;2023-02-13T14:27:55;14.27;;;13.47;;
7231;SDS011;3657;49.630;11.018;2023-02-13T14:30:25;15.03;;;14.13;;
7231;SDS011;3657;49.630;11.018;2023-02-13T14:32:54;16.13;;;15.17;;
7231;SDS011;3657;49.630;11.018;2023-02-13T14:35:23;14.40;;;13.60;;
7231;SDS011;3657;49.630;11.018;2023-02-13T14:37:52;15.20;;;14.30;;
7231;SDS011;3657;49.630;11.018;2023-02-13T14:40:31;14.40;;;13.60;;
7231;SDS011;3657;49.630;11.018;2023-02-13T14:43:32;14.50;;;13.60;;
7231;SDS011;3657;49.630;11.018;2023-02-13T14:46:13;13.70;;;13.00;;
7231;SDS011;3657;49.630;11.018;2023-02-13T14:48:50;14.17;;;13.37;;
7231;SDS011;3657;49.630;11.018;2023-02-13T14:51:21;15.33;;;14.53;;
7231;SDS011;3657;49.630;11.018;2023-02-13T14:53:54;13.47;;;12.83;;
7231;SDS011;3657;49.630;11.018;2023-02-13T14:56:24;14.87;;;13.97;;
7231;SDS011;3657;49.630;11.018;2023-02-13T14:58:54;14.23;;;13.53;;
7231;SDS011;3657;49.630;11.018;2023-02-13T15:01:29;14.93;;;14.03;;
7231;SDS011;3657;49.630;11.018;2023-02-13T15:04:00;13.50;;;12.90;;
7231;SDS011;3657;49.630;11.018;2023-02-13T15:06:32;13.33;;;12.73;;
7231;SDS011;3657;49.630;11.018;2023-02-13T15:09:03;13.63;;;12.93;;
7231;SDS011;3657;49.630;11.018;2023-02-13T15:11:40;13.43;;;12.73;;
7231;SDS011;3657;49.630;11.018;2023-02-13T15:14:29;13.57;;;12.77;;
7231;SDS011;3657;49.630;11.018;2023-02-13T15:16:58;13.27;;;12.50;;
7231;SDS011;3657;49.630;11.018;2023-02-13T15:19:30;13.40;;;12.67;;
7231;SDS011;3657;49.630;11.018;2023-02-13T15:21:59;13.93;;;13.13;;
7231;SDS011;3657;49.630;11.018;2023-02-13T15:24:28;12.73;;;11.97;;